createdAt,value
2022-11-18T00:01:21.709Z,99125.06
2022-11-18T00:03:50.366Z,99114.78
2022-11-18T00:06:20.638Z,99124.22
2022-11-18T00:08:48.846Z,99125.84
2022-11-18T00:11:37.710Z,99124.97
2022-11-18T00:14:24.953Z,99116.44
2022-11-18T00:17:01.608Z,99120.47
2022-11-18T00:19:30.139Z,99125.34
2022-11-18T00:21:58.424Z,99108.06
2022-11-18T00:24:26.813Z,99117.06
2022-11-18T00:26:55.412Z,99103.66
2022-11-18T00:29:24.135Z,99117.06
2022-11-18T00:31:51.819Z,99112.16
2022-11-18T00:34:19.599Z,99109.41
2022-11-18T00:36:48.280Z,99113.53
2022-11-18T00:39:18.495Z,99107.53
2022-11-18T00:42:05.581Z,99099.88
2022-11-18T00:44:33.347Z,99088.81
2022-11-18T00:47:00.839Z,99097.59
2022-11-18T00:49:28.741Z,99094.84
2022-11-18T00:51:56.254Z,99081.38
2022-11-18T00:54:23.796Z,99082.00
2022-11-18T00:56:53.785Z,99074.75
2022-11-18T00:59:21.598Z,99075.75
2022-11-18T01:01:49.326Z,99079.69
2022-11-18T01:04:17.706Z,99078.16
2022-11-18T01:06:45.256Z,99079.28
2022-11-18T01:09:12.690Z,99071.00
2022-11-18T01:11:58.903Z,99083.06
2022-11-18T01:14:26.865Z,99075.69
2022-11-18T01:16:55.988Z,99077.31
2022-11-18T01:19:26.410Z,99075.78
2022-11-18T01:21:56.792Z,99070.50
2022-11-18T01:24:24.339Z,99070.88
2022-11-18T01:26:54.209Z,99070.38
2022-11-18T01:29:21.884Z,99061.09
2022-11-18T01:32:17.400Z,99070.47
2022-11-18T01:34:37.140Z,99070.59
2022-11-18T01:37:04.612Z,99059.19
2022-11-18T01:39:32.170Z,99060.59
2022-11-18T01:41:59.679Z,99055.94
2022-11-18T01:45:00.784Z,99062.03
2022-11-18T01:47:34.297Z,99064.31
2022-11-18T01:50:02.691Z,99061.69
2022-11-18T01:52:33.159Z,99063.19
2022-11-18T01:55:06.765Z,99048.28
2022-11-18T01:57:34.889Z,99067.59
2022-11-18T02:00:06.275Z,99064.47
2022-11-18T02:02:37.557Z,99055.03
2022-11-18T02:05:07.653Z,99057.44
2022-11-18T02:07:39.370Z,99062.94
2022-11-18T02:10:07.848Z,99052.16
2022-11-18T02:12:37.559Z,99056.19
2022-11-18T02:15:05.697Z,99055.53
2022-11-18T02:17:48.937Z,99055.16
2022-11-18T02:20:28.553Z,99047.63
2022-11-18T02:23:34.115Z,99052.00
2022-11-18T02:26:21.786Z,99042.56
2022-11-18T02:29:09.846Z,99038.34
2022-11-18T02:31:43.077Z,99049.09
2022-11-18T02:34:24.722Z,99020.44
2022-11-18T02:37:08.119Z,99038.59
2022-11-18T02:39:39.768Z,99040.88
2022-11-18T02:42:11.628Z,99030.59
2022-11-18T02:44:43.957Z,99044.78
2022-11-18T02:47:15.587Z,99044.81
2022-11-18T02:49:51.060Z,99038.78
2022-11-18T02:52:21.253Z,99032.13
2022-11-18T02:54:50.548Z,99034.03
2022-11-18T02:57:20.942Z,99026.34
2022-11-18T02:59:49.086Z,99032.88
2022-11-18T03:02:20.483Z,99037.25
2022-11-18T03:04:49.767Z,99035.59
2022-11-18T03:07:25.636Z,99028.34
2022-11-18T03:09:53.386Z,99028.69
2022-11-18T03:12:43.288Z,99030.53
2022-11-18T03:15:13.813Z,99021.41
2022-11-18T03:18:08.794Z,99018.84
2022-11-18T03:20:52.891Z,99018.97
2022-11-18T03:23:56.977Z,99020.97
2022-11-18T03:26:40.120Z,99013.66
2022-11-18T03:29:10.254Z,99021.22
2022-11-18T03:31:57.245Z,99013.66
2022-11-18T03:34:34.880Z,99018.31
2022-11-18T03:37:10.249Z,99017.06
2022-11-18T03:39:43.081Z,99018.91
2022-11-18T03:42:22.237Z,99004.34
2022-11-18T03:44:54.712Z,98997.78
2022-11-18T03:47:28.931Z,99005.56
2022-11-18T03:50:05.706Z,99010.22
2022-11-18T03:52:37.198Z,99003.00
2022-11-18T03:55:12.542Z,99001.81
2022-11-18T03:57:51.838Z,99003.84
2022-11-18T04:00:20.468Z,99006.97
2022-11-18T04:02:50.944Z,98999.78
2022-11-18T04:05:19.652Z,98996.03
2022-11-18T04:08:00.118Z,99007.59
2022-11-18T04:10:50.138Z,98997.19
2022-11-18T04:13:24.352Z,98998.09
2022-11-18T04:15:53.933Z,99002.69
2022-11-18T04:18:21.484Z,98999.78
2022-11-18T04:20:49.045Z,98998.38
2022-11-18T04:23:16.613Z,99006.28
2022-11-18T04:25:44.282Z,99004.34
2022-11-18T04:28:12.080Z,98992.09
2022-11-18T04:30:39.565Z,99004.13
2022-11-18T04:33:07.009Z,99000.00
2022-11-18T04:35:34.442Z,99007.09
2022-11-18T04:38:01.889Z,98999.56
2022-11-18T04:40:29.361Z,99002.19
2022-11-18T04:42:56.924Z,99001.03
2022-11-18T04:45:24.491Z,99002.78
2022-11-18T04:47:51.941Z,98997.38
2022-11-18T04:50:19.592Z,98989.94
2022-11-18T04:52:47.034Z,98991.16
2022-11-18T04:55:14.598Z,98991.91
2022-11-18T04:57:42.069Z,98989.69
2022-11-18T05:00:09.988Z,98989.69
2022-11-18T05:02:37.441Z,98992.56
2022-11-18T05:05:05.353Z,98998.34
2022-11-18T05:07:32.893Z,98996.81
2022-11-18T05:10:00.370Z,98993.53
2022-11-18T05:12:47.671Z,99001.97
2022-11-18T05:15:19.772Z,99000.84
2022-11-18T05:17:48.068Z,99000.00
2022-11-18T05:20:16.277Z,99001.63
2022-11-18T05:22:43.783Z,98995.88
2022-11-18T05:25:11.363Z,98993.09
2022-11-18T05:27:40.218Z,98998.22
2022-11-18T05:30:08.469Z,99009.63
2022-11-18T05:32:35.901Z,98994.34
2022-11-18T05:35:03.511Z,99005.09
2022-11-18T05:37:33.438Z,99007.22
2022-11-18T05:40:01.054Z,99007.72
2022-11-18T05:42:47.321Z,99002.09
2022-11-18T05:45:16.138Z,99011.91
2022-11-18T05:48:04.008Z,99003.91
2022-11-18T05:50:33.509Z,99006.91
2022-11-18T05:53:01.688Z,99006.78
2022-11-18T05:55:39.987Z,99015.03
2022-11-18T05:58:07.511Z,99010.88
2022-11-18T06:00:35.182Z,99002.47
2022-11-18T06:03:07.380Z,99005.50
2022-11-18T06:05:35.091Z,99009.75
2022-11-18T06:08:02.789Z,99010.50
2022-11-18T06:10:35.180Z,99002.88
2022-11-18T06:13:12.074Z,99000.72
2022-11-18T06:15:43.911Z,98998.81
2022-11-18T06:18:24.532Z,99009.44
2022-11-18T06:20:55.542Z,99006.28
2022-11-18T06:23:23.332Z,99001.25
2022-11-18T06:25:51.204Z,99011.09
2022-11-18T06:28:20.068Z,99014.09
2022-11-18T06:30:47.724Z,99010.78
2022-11-18T06:33:15.138Z,99004.00
2022-11-18T06:35:43.668Z,99003.34
2022-11-18T06:38:13.741Z,99005.31
2022-11-18T06:40:44.803Z,99013.13
2022-11-18T06:43:31.061Z,99013.44
2022-11-18T06:46:18.193Z,99011.31
2022-11-18T06:48:45.871Z,99012.00
2022-11-18T06:51:13.514Z,98993.06
2022-11-18T06:53:41.160Z,98999.97
2022-11-18T06:56:12.564Z,99017.78
2022-11-18T06:58:40.952Z,99005.59
2022-11-18T07:01:15.646Z,99003.41
2022-11-18T07:03:44.973Z,99006.41
2022-11-18T07:06:15.094Z,99007.88
2022-11-18T07:08:43.742Z,98993.75
2022-11-18T07:11:13.653Z,98992.47
2022-11-18T07:13:43.724Z,99001.72
2022-11-18T07:16:14.352Z,98999.53
2022-11-18T07:18:43.756Z,99009.28
2022-11-18T07:21:14.193Z,99012.84
2022-11-18T07:23:42.357Z,99017.50
2022-11-18T07:26:10.796Z,99014.34
2022-11-18T07:28:38.528Z,99010.63
2022-11-18T07:31:14.473Z,99015.66
2022-11-18T07:33:43.429Z,99016.16
2022-11-18T07:36:13.054Z,99019.34
2022-11-18T07:38:41.332Z,99014.31
2022-11-18T07:41:30.484Z,99023.06
2022-11-18T07:44:00.993Z,99015.75
2022-11-18T07:46:29.407Z,99018.75
2022-11-18T07:48:59.277Z,99015.38
2022-11-18T07:51:29.237Z,99005.72
2022-11-18T07:53:56.890Z,99010.44
2022-11-18T07:56:25.097Z,99016.56
2022-11-18T07:58:54.531Z,99019.19
2022-11-18T08:01:24.548Z,99018.56
2022-11-18T08:03:52.388Z,99027.84
2022-11-18T08:06:20.336Z,99019.03
2022-11-18T08:08:48.340Z,99012.16
2022-11-18T08:11:22.343Z,99025.31
2022-11-18T08:13:52.038Z,99028.91
2022-11-18T08:16:22.876Z,99029.78
2022-11-18T08:18:50.926Z,99024.88
2022-11-18T08:21:20.458Z,99025.44
2022-11-18T08:23:58.533Z,99025.88
2022-11-18T08:26:27.211Z,99022.81
2022-11-18T08:28:55.573Z,99038.13
2022-11-18T08:31:26.538Z,99038.22
2022-11-18T08:34:02.676Z,99029.59
2022-11-18T08:36:32.800Z,99019.53
2022-11-18T08:39:01.869Z,99032.28
2022-11-18T08:41:44.045Z,99023.53
2022-11-18T08:44:16.594Z,99016.09
2022-11-18T08:46:47.734Z,99024.19
2022-11-18T08:49:15.572Z,99026.81
2022-11-18T08:51:43.302Z,99012.50
2022-11-18T08:54:10.802Z,99020.91
2022-11-18T08:56:39.314Z,99017.41
2022-11-18T08:59:06.944Z,99024.31
2022-11-18T09:01:35.866Z,99021.88
2022-11-18T09:04:04.183Z,99037.31
2022-11-18T09:06:31.659Z,99033.81
2022-11-18T09:09:03.449Z,99045.84
2022-11-18T09:11:34.889Z,99042.13
2022-11-18T09:16:50.415Z,99040.81
2022-11-18T09:19:46.085Z,99047.06
2022-11-18T09:22:06.654Z,99040.84
2022-11-18T09:24:34.884Z,99040.94
2022-11-18T09:27:10.830Z,99039.19
2022-11-18T09:29:41.394Z,99034.56
2022-11-18T09:32:08.909Z,99034.81
2022-11-18T09:34:37.711Z,99038.75
2022-11-18T09:37:06.800Z,99042.78
2022-11-18T09:39:36.559Z,99036.31
2022-11-18T09:42:23.599Z,99035.00
2022-11-18T09:45:14.004Z,99042.78
2022-11-18T09:47:43.295Z,99038.06
2022-11-18T09:50:47.934Z,99032.88
2022-11-18T09:53:19.246Z,99032.31
2022-11-18T09:55:48.982Z,99037.03
2022-11-18T09:58:28.641Z,99042.63
2022-11-18T10:00:56.236Z,99045.91
2022-11-18T10:03:28.265Z,99042.19
2022-11-18T10:06:03.811Z,99044.59
2022-11-18T10:08:48.523Z,99044.28
2022-11-18T10:11:25.461Z,99056.00
2022-11-18T10:14:24.514Z,99056.44
2022-11-18T10:17:20.479Z,99050.19
2022-11-18T10:19:55.295Z,99055.00
2022-11-18T10:22:31.764Z,99054.03
2022-11-18T10:25:02.799Z,99052.03
2022-11-18T10:27:38.904Z,99053.81
2022-11-18T10:30:26.657Z,99053.59
2022-11-18T10:32:58.654Z,99060.47
2022-11-18T10:35:38.347Z,99050.63
2022-11-18T10:38:14.881Z,99061.59
2022-11-18T10:41:01.412Z,99059.72
2022-11-18T10:43:47.934Z,99075.06
2022-11-18T10:46:32.438Z,99069.13
2022-11-18T10:49:09.056Z,99071.31
2022-11-18T10:51:37.718Z,99072.19
2022-11-18T10:54:09.718Z,99063.53
2022-11-18T10:56:46.237Z,99075.72
2022-11-18T10:59:48.160Z,99071.00
2022-11-18T11:02:19.945Z,99075.72
2022-11-18T11:04:49.874Z,99084.94
2022-11-18T11:07:38.106Z,99093.25
2022-11-18T11:10:08.447Z,99084.34
2022-11-18T11:12:47.324Z,99089.94
2022-11-18T11:15:19.380Z,99089.09
2022-11-18T11:18:10.761Z,99099.81
2022-11-18T11:20:39.047Z,99093.88
2022-11-18T11:23:11.831Z,99089.81
2022-11-18T11:29:22.856Z,99098.28
2022-11-18T11:32:21.894Z,99104.28
2022-11-18T11:35:01.206Z,99104.84
2022-11-18T11:37:47.143Z,99111.00
2022-11-18T11:40:39.561Z,99116.47
2022-11-18T11:43:28.332Z,99118.00
2022-11-18T11:46:11.919Z,99118.34
2022-11-18T11:48:45.112Z,99114.06
2022-11-18T11:51:41.627Z,99118.88
2022-11-18T11:54:19.454Z,99120.44
2022-11-18T11:56:51.712Z,99123.69
2022-11-18T11:59:31.369Z,99113.06
2022-11-18T12:02:37.163Z,99121.63
2022-11-18T12:05:11.121Z,99117.13
2022-11-18T12:07:45.632Z,99127.22
2022-11-18T12:10:20.791Z,99128.97
2022-11-18T12:13:09.031Z,99132.69
2022-11-18T12:16:09.759Z,99132.56
2022-11-18T12:18:37.191Z,99136.19
2022-11-18T12:21:04.768Z,99138.50
2022-11-18T12:23:34.121Z,99139.69
2022-11-18T12:26:11.421Z,99149.78
2022-11-18T12:28:39.147Z,99156.44
2022-11-18T12:31:18.601Z,99159.41
2022-11-18T12:33:55.444Z,99162.50
2022-11-18T12:36:27.192Z,99156.44
2022-11-18T12:38:55.769Z,99158.53
2022-11-18T12:42:00.208Z,99172.56
2022-11-18T12:44:29.774Z,99157.31
2022-11-18T12:47:01.492Z,99166.22
2022-11-18T12:49:29.191Z,99180.44
2022-11-18T12:52:01.367Z,99176.03
2022-11-18T12:54:39.262Z,99163.59
2022-11-18T12:57:22.787Z,99173.75
2022-11-18T12:59:50.804Z,99183.94
2022-11-18T13:02:25.946Z,99184.81
2022-11-18T13:05:19.509Z,99183.63
2022-11-18T13:08:12.465Z,99193.50
2022-11-18T13:11:26.521Z,99193.41
2022-11-18T13:14:14.939Z,99189.19
2022-11-18T13:17:02.933Z,99194.25
2022-11-18T13:19:30.462Z,99193.91
2022-11-18T13:22:18.815Z,99200.81
2022-11-18T13:24:52.087Z,99196.19
2022-11-18T13:27:54.407Z,99208.22
2022-11-18T13:30:22.021Z,99202.28
2022-11-18T13:32:50.553Z,99202.97
2022-11-18T13:35:23.515Z,99222.78
2022-11-18T13:37:59.904Z,99222.56
2022-11-18T13:40:38.315Z,99225.94
2022-11-18T13:43:06.069Z,99222.44
2022-11-18T13:45:34.773Z,99224.41
2022-11-18T13:48:09.726Z,99231.44
2022-11-18T13:50:39.965Z,99231.81
2022-11-18T13:53:38.255Z,99235.00
2022-11-18T13:56:33.231Z,99227.84
2022-11-18T13:59:16.792Z,99231.59
2022-11-18T14:01:47.009Z,99233.97
2022-11-18T14:04:23.951Z,99233.09
2022-11-18T14:06:51.782Z,99228.38
2022-11-18T14:09:27.310Z,99221.06
2022-11-18T14:12:10.113Z,99236.41
2022-11-18T14:14:40.040Z,99233.66
2022-11-18T14:17:18.585Z,99231.81
2022-11-18T14:19:48.706Z,99230.78
2022-11-18T14:22:25.392Z,99225.53
2022-11-18T14:25:00.225Z,99236.06
2022-11-18T14:27:40.856Z,99233.88
2022-11-18T14:30:27.687Z,99223.59
2022-11-18T14:33:13.712Z,99240.03
2022-11-18T14:35:44.149Z,99249.66
2022-11-18T14:38:43.591Z,99242.00
2022-11-18T14:41:11.010Z,99235.19
2022-11-18T14:43:38.687Z,99240.66
2022-11-18T14:46:14.338Z,99236.28
2022-11-18T14:48:42.061Z,99244.56
2022-11-18T14:51:14.779Z,99240.94
2022-11-18T14:53:43.500Z,99239.31
2022-11-18T14:56:28.977Z,99236.13
2022-11-18T14:58:56.932Z,99228.81
2022-11-18T15:01:29.286Z,99233.97
2022-11-18T15:04:00.650Z,99231.66
2022-11-18T15:06:28.688Z,99235.72
2022-11-18T15:08:56.169Z,99239.69
2022-11-18T15:11:23.748Z,99238.69
2022-11-18T15:13:51.258Z,99242.00
2022-11-18T15:16:24.874Z,99236.59
2022-11-18T15:18:54.568Z,99248.22
2022-11-18T15:21:22.724Z,99255.41
2022-11-18T15:23:50.879Z,99256.19
2022-11-18T15:26:29.872Z,99255.09
2022-11-18T15:28:58.058Z,99258.53
2022-11-18T15:31:26.272Z,99258.31
2022-11-18T15:33:54.119Z,99263.13
2022-11-18T15:36:23.943Z,99257.19
2022-11-18T15:38:55.824Z,99258.09
2022-11-18T15:41:28.209Z,99270.50
2022-11-18T15:43:58.890Z,99268.78
2022-11-18T15:46:28.296Z,99265.63
2022-11-18T15:49:00.230Z,99271.41
2022-11-18T15:51:29.658Z,99262.88
2022-11-18T15:53:58.445Z,99275.56
2022-11-18T15:56:28.844Z,99276.44
2022-11-18T15:58:57.559Z,99282.13
2022-11-18T16:01:30.807Z,99288.31
2022-11-18T16:03:58.694Z,99279.41
2022-11-18T16:06:27.110Z,99300.81
2022-11-18T16:08:59.604Z,99300.44
2022-11-18T16:11:48.266Z,99302.56
2022-11-18T16:14:18.519Z,99305.94
2022-11-18T16:16:48.020Z,99313.88
2022-11-18T16:19:18.042Z,99316.97
2022-11-18T16:21:51.820Z,99314.69
2022-11-18T16:24:22.131Z,99319.38
2022-11-18T16:26:50.440Z,99320.38
2022-11-18T16:29:18.692Z,99311.19
2022-11-18T16:31:52.639Z,99308.28
2022-11-18T16:34:28.295Z,99321.47
2022-11-18T16:36:59.797Z,99329.28
2022-11-18T16:39:28.455Z,99329.91
2022-11-18T16:42:06.454Z,99333.19
2022-11-18T16:44:35.793Z,99334.31
2022-11-18T16:47:08.993Z,99341.13
2022-11-18T16:49:40.287Z,99336.97
2022-11-18T16:52:08.860Z,99337.72
2022-11-18T16:54:42.983Z,99347.13
2022-11-18T16:57:13.257Z,99350.91
2022-11-18T16:59:41.047Z,99349.16
2022-11-18T17:02:12.819Z,99361.75
2022-11-18T17:04:40.764Z,99366.00
2022-11-18T17:07:08.385Z,99366.78
2022-11-18T17:09:36.246Z,99362.63
2022-11-18T17:12:04.104Z,99372.28
2022-11-18T17:14:32.146Z,99380.19
2022-11-18T17:16:59.909Z,99381.31
2022-11-18T17:19:27.399Z,99382.81
2022-11-18T17:21:55.107Z,99386.88
2022-11-18T17:24:23.620Z,99387.09
2022-11-18T17:26:52.339Z,99382.97
2022-11-18T17:29:20.626Z,99391.03
2022-11-18T17:31:48.747Z,99386.75
2022-11-18T17:34:16.754Z,99399.47
2022-11-18T17:36:44.683Z,99394.44
2022-11-18T17:39:13.441Z,99401.22
2022-11-18T17:42:00.121Z,99399.56
2022-11-18T17:44:29.302Z,99401.34
2022-11-18T17:46:56.937Z,99394.31
2022-11-18T17:49:24.462Z,99396.19
2022-11-18T17:51:53.536Z,99394.44
2022-11-18T17:54:22.076Z,99400.75
2022-11-18T17:56:52.422Z,99391.91
2022-11-18T17:59:21.062Z,99394.97
2022-11-18T18:01:52.861Z,99397.81
2022-11-18T18:04:23.367Z,99402.97
2022-11-18T18:06:52.981Z,99407.78
2022-11-18T18:09:28.512Z,99410.09
2022-11-18T18:11:58.954Z,99411.19
2022-11-18T18:14:26.553Z,99408.78
2022-11-18T18:16:54.327Z,99420.75
2022-11-18T18:19:23.379Z,99423.78
2022-11-18T18:21:50.928Z,99412.47
2022-11-18T18:24:21.005Z,99422.91
2022-11-18T18:26:49.268Z,99422.03
2022-11-18T18:29:16.891Z,99433.75
2022-11-18T18:31:44.407Z,99427.47
2022-11-18T18:34:11.947Z,99425.94
2022-11-18T18:36:39.494Z,99445.81
2022-11-18T18:39:06.986Z,99432.09
2022-11-18T18:41:34.661Z,99432.75
2022-11-18T18:44:02.350Z,99447.69
2022-11-18T18:46:31.110Z,99440.53
2022-11-18T18:48:58.985Z,99451.72
2022-11-18T18:51:34.775Z,99455.53
2022-11-18T18:54:03.061Z,99450.63
2022-11-18T18:56:30.587Z,99457.94
2022-11-18T18:58:58.546Z,99447.09
2022-11-18T19:01:27.922Z,99454.41
2022-11-18T19:03:57.518Z,99456.31
2022-11-18T19:09:15.615Z,99463.72
2022-11-18T19:12:02.228Z,99455.94
2022-11-18T19:14:30.048Z,99455.06
2022-11-18T19:16:57.727Z,99459.97
2022-11-18T19:19:46.878Z,99465.00
2022-11-18T19:22:15.200Z,99471.69
2022-11-18T19:24:49.728Z,99470.06
2022-11-18T19:27:19.314Z,99477.84
2022-11-18T19:29:47.180Z,99481.13
2022-11-18T19:32:15.353Z,99478.38
2022-11-18T19:34:42.886Z,99478.75
2022-11-18T19:37:10.531Z,99487.19
2022-11-18T19:39:38.739Z,99487.19
2022-11-18T19:42:06.470Z,99486.81
2022-11-18T19:44:34.033Z,99489.88
2022-11-18T19:47:01.655Z,99502.84
2022-11-18T19:49:29.229Z,99506.00
2022-11-18T19:51:56.734Z,99511.78
2022-11-18T19:54:24.181Z,99515.44
2022-11-18T19:56:51.761Z,99525.00
2022-11-18T19:59:19.500Z,99531.41
2022-11-18T20:01:47.309Z,99529.31
2022-11-18T20:04:14.880Z,99535.34
2022-11-18T20:06:42.383Z,99537.63
2022-11-18T20:09:11.282Z,99541.13
2022-11-18T20:11:41.228Z,99535.72
2022-11-18T20:14:12.567Z,99535.09
2022-11-18T20:16:42.610Z,99535.84
2022-11-18T20:19:13.715Z,99543.03
2022-11-18T20:21:43.482Z,99542.66
2022-11-18T20:24:16.045Z,99539.13
2022-11-18T20:26:44.558Z,99541.25
2022-11-18T20:29:12.820Z,99549.66
2022-11-18T20:31:40.278Z,99557.75
2022-11-18T20:34:07.809Z,99556.59
2022-11-18T20:36:36.576Z,99560.38
2022-11-18T20:39:07.752Z,99562.00
2022-11-18T20:41:36.586Z,99556.72
2022-11-18T20:44:04.389Z,99560.97
2022-11-18T20:46:33.338Z,99562.38
2022-11-18T20:49:00.934Z,99574.19
2022-11-18T20:51:29.198Z,99581.63
2022-11-18T20:53:58.217Z,99581.38
2022-11-18T20:56:27.781Z,99583.75
2022-11-18T20:58:57.878Z,99596.72
2022-11-18T21:01:28.719Z,99596.72
2022-11-18T21:03:58.604Z,99591.03
2022-11-18T21:06:29.111Z,99595.47
2022-11-18T21:08:59.007Z,99604.03
2022-11-18T21:11:27.336Z,99604.91
2022-11-18T21:14:16.039Z,99607.53
2022-11-18T21:16:46.484Z,99618.13
2022-11-18T21:19:14.421Z,99618.53
2022-11-18T21:21:44.820Z,99623.41
2022-11-18T21:24:14.452Z,99625.16
2022-11-18T21:26:42.714Z,99633.22
2022-11-18T21:29:11.873Z,99650.72
2022-11-18T21:31:39.929Z,99655.63
2022-11-18T21:34:08.613Z,99662.53
2022-11-18T21:36:40.086Z,99663.53
2022-11-18T21:39:12.504Z,99667.94
2022-11-18T21:41:40.608Z,99668.69
2022-11-18T21:44:10.576Z,99669.56
2022-11-18T21:46:42.237Z,99678.28
2022-11-18T21:49:10.269Z,99681.69
2022-11-18T21:51:37.986Z,99688.59
2022-11-18T21:54:05.795Z,99694.66
2022-11-18T21:56:33.329Z,99688.13
2022-11-18T21:59:02.408Z,99686.25
2022-11-18T22:01:33.600Z,99688.00
2022-11-18T22:04:03.799Z,99688.41
2022-11-18T22:06:33.844Z,99688.66
2022-11-18T22:09:03.668Z,99692.03
2022-11-18T22:11:31.328Z,99702.00
2022-11-18T22:13:58.789Z,99692.41
2022-11-18T22:16:27.013Z,99713.69
2022-11-18T22:19:01.433Z,99703.50
2022-11-18T22:21:31.387Z,99709.66
2022-11-18T22:24:00.469Z,99706.28
2022-11-18T22:26:28.798Z,99711.44
2022-11-18T22:28:58.154Z,99710.91
2022-11-18T22:31:27.705Z,99716.47
2022-11-18T22:33:56.138Z,99724.00
2022-11-18T22:36:25.707Z,99706.28
2022-11-18T22:38:54.429Z,99715.19
2022-11-18T22:41:45.134Z,99720.84
2022-11-18T22:44:14.986Z,99724.13
2022-11-18T22:46:44.892Z,99732.16
2022-11-18T22:49:13.792Z,99722.19
2022-11-18T22:51:41.461Z,99742.47
2022-11-18T22:54:37.306Z,99733.53
2022-11-18T22:56:57.718Z,99745.88
2022-11-18T22:59:25.396Z,99736.78
2022-11-18T23:01:53.241Z,99747.00
2022-11-18T23:04:21.164Z,99754.03
2022-11-18T23:06:49.724Z,99751.50
2022-11-18T23:09:17.864Z,99747.88
2022-11-18T23:12:04.215Z,99747.75
2022-11-18T23:14:31.724Z,99759.56
2022-11-18T23:16:59.800Z,99758.94
2022-11-18T23:19:27.329Z,99758.94
2022-11-18T23:21:54.830Z,99774.16
2022-11-18T23:24:22.569Z,99774.44
2022-11-18T23:26:50.233Z,99779.06
2022-11-18T23:29:18.090Z,99779.19
2022-11-18T23:31:45.998Z,99790.03
2022-11-18T23:34:15.737Z,99791.66
2022-11-18T23:36:43.852Z,99797.56
2022-11-18T23:39:12.279Z,99804.09
2022-11-18T23:41:40.680Z,99807.97
2022-11-18T23:44:08.303Z,99814.06
2022-11-18T23:46:36.477Z,99812.88
2022-11-18T23:49:08.878Z,99812.28
2022-11-18T23:51:36.446Z,99820.31
2022-11-18T23:54:04.083Z,99819.16
2022-11-18T23:56:37.466Z,99820.66
2022-11-18T23:59:06.646Z,99828.94
